createdAt,value
2023-06-07T00:00:28.122Z,22.90
2023-06-07T00:02:58.293Z,22.90
2023-06-07T00:05:25.608Z,23.10
2023-06-07T00:07:54.278Z,22.70
2023-06-07T00:10:22.621Z,22.80
2023-06-07T00:12:51.454Z,22.70
2023-06-07T00:15:19.060Z,22.90
2023-06-07T00:17:48.763Z,23.00
2023-06-07T00:20:18.294Z,22.90
2023-06-07T00:22:49.168Z,22.90
2023-06-07T00:25:18.440Z,22.90
2023-06-07T00:27:47.299Z,23.00
2023-06-07T00:30:18.893Z,23.10
2023-06-07T00:32:49.044Z,23.20
2023-06-07T00:35:20.117Z,23.10
2023-06-07T00:37:48.741Z,23.20
2023-06-07T00:40:17.886Z,23.10
2023-06-07T00:42:46.448Z,23.10
2023-06-07T00:45:14.568Z,23.10
2023-06-07T00:47:44.385Z,23.10
2023-06-07T00:50:13.316Z,23.10
2023-06-07T00:52:43.049Z,23.00
2023-06-07T00:55:13.259Z,22.90
2023-06-07T00:57:44.200Z,23.00
2023-06-07T01:00:17.010Z,23.10
2023-06-07T01:02:48.454Z,23.10
2023-06-07T01:05:21.752Z,23.10
2023-06-07T01:07:55.036Z,23.20
2023-06-07T01:10:24.556Z,23.40
2023-06-07T01:12:57.512Z,24.10
2023-06-07T01:15:26.961Z,23.60
2023-06-07T01:17:55.719Z,23.80
2023-06-07T01:20:33.284Z,23.90
2023-06-07T01:23:08.836Z,23.90
2023-06-07T01:25:36.530Z,23.90
2023-06-07T01:28:07.352Z,24.00
2023-06-07T01:30:35.826Z,24.00
2023-06-07T01:33:07.971Z,24.00
2023-06-07T01:35:36.463Z,23.80
2023-06-07T01:38:05.234Z,23.70
2023-06-07T01:40:36.351Z,23.20
2023-06-07T01:43:05.468Z,23.00
2023-06-07T01:45:34.431Z,23.00
2023-06-07T01:48:04.215Z,23.10
2023-06-07T01:50:32.485Z,23.20
2023-06-07T01:53:01.295Z,23.30
2023-06-07T01:55:29.138Z,23.30
2023-06-07T01:58:15.187Z,23.30
2023-06-07T02:00:48.509Z,23.00
2023-06-07T02:03:31.669Z,22.60
2023-06-07T02:06:05.181Z,23.40
2023-06-07T02:09:00.564Z,23.10
2023-06-07T02:11:28.998Z,23.30
2023-06-07T02:13:57.207Z,23.10
2023-06-07T02:16:36.599Z,23.10
2023-06-07T02:19:08.406Z,23.00
2023-06-07T02:21:39.249Z,22.90
2023-06-07T02:24:07.348Z,22.90
2023-06-07T02:26:34.903Z,22.70
2023-06-07T02:29:03.823Z,22.50
2023-06-07T02:31:31.282Z,22.80
2023-06-07T02:33:58.321Z,22.60
2023-06-07T02:36:33.986Z,22.50
2023-06-07T02:39:01.774Z,22.50
2023-06-07T02:41:28.873Z,22.80
2023-06-07T02:43:56.059Z,22.90
2023-06-07T02:46:23.056Z,22.80
2023-06-07T02:48:50.081Z,23.00
2023-06-07T02:51:17.316Z,23.00
2023-06-07T02:53:47.698Z,22.80
2023-06-07T02:56:14.634Z,22.60
2023-06-07T02:58:41.759Z,22.60
2023-06-07T03:01:09.094Z,22.50
2023-06-07T03:03:39.210Z,22.50
2023-06-07T03:06:09.110Z,22.50
2023-06-07T03:08:36.225Z,22.50
2023-06-07T03:11:03.383Z,22.70
2023-06-07T03:13:33.346Z,22.70
2023-06-07T03:16:00.295Z,22.70
2023-06-07T03:18:27.260Z,22.70
2023-06-07T03:20:54.480Z,22.80
2023-06-07T03:23:21.544Z,22.80
2023-06-07T03:25:48.722Z,22.90
2023-06-07T03:28:15.828Z,23.10
2023-06-07T03:30:43.154Z,23.00
2023-06-07T03:33:10.172Z,23.00
2023-06-07T03:35:37.187Z,23.20
2023-06-07T03:38:04.184Z,23.20
2023-06-07T03:40:31.158Z,23.30
2023-06-07T03:43:00.036Z,23.40
2023-06-07T03:45:27.899Z,23.10
2023-06-07T03:47:58.419Z,23.00
2023-06-07T03:50:25.552Z,23.10
2023-06-07T03:52:52.511Z,23.00
2023-06-07T03:55:21.190Z,22.90
2023-06-07T03:57:51.584Z,23.00
2023-06-07T04:00:19.000Z,22.90
2023-06-07T04:02:46.811Z,22.90
2023-06-07T04:05:14.194Z,22.90
2023-06-07T04:07:41.911Z,22.80
2023-06-07T04:10:09.167Z,23.00
2023-06-07T04:12:36.327Z,23.20
2023-06-07T04:15:03.644Z,23.30
2023-06-07T04:17:31.029Z,23.40
2023-06-07T04:19:58.197Z,23.10
2023-06-07T04:22:25.845Z,22.90
2023-06-07T04:24:54.277Z,22.90
2023-06-07T04:27:21.397Z,22.90
2023-06-07T04:29:50.733Z,22.90
2023-06-07T04:32:21.024Z,22.90
2023-06-07T04:34:48.998Z,22.90
2023-06-07T04:37:17.616Z,22.80
2023-06-07T04:39:50.393Z,22.70
2023-06-07T04:42:21.065Z,22.70
2023-06-07T04:44:48.501Z,22.80
2023-06-07T04:47:15.512Z,23.40
2023-06-07T04:49:42.608Z,22.60
2023-06-07T04:52:09.736Z,22.70
2023-06-07T04:54:37.918Z,22.70
2023-06-07T04:57:05.823Z,22.70
2023-06-07T04:59:36.034Z,22.50
2023-06-07T05:02:03.712Z,22.50
2023-06-07T05:04:32.226Z,22.50
2023-06-07T05:07:02.195Z,22.50
2023-06-07T05:09:30.832Z,22.70
2023-06-07T05:11:58.120Z,22.70
2023-06-07T05:14:25.169Z,22.60
2023-06-07T05:16:52.714Z,22.90
2023-06-07T05:19:20.915Z,22.70
2023-06-07T05:21:47.998Z,22.60
2023-06-07T05:24:17.543Z,22.60
2023-06-07T05:26:44.850Z,22.50
2023-06-07T05:29:11.967Z,22.60
2023-06-07T05:31:38.957Z,22.40
2023-06-07T05:34:06.063Z,22.50
2023-06-07T05:36:36.422Z,22.40
2023-06-07T05:39:04.267Z,22.40
2023-06-07T05:41:31.414Z,22.30
2023-06-07T05:43:58.479Z,22.30
2023-06-07T05:46:25.795Z,22.00
2023-06-07T05:48:52.828Z,22.10
2023-06-07T05:51:20.138Z,22.00
2023-06-07T05:53:48.041Z,22.30
2023-06-07T05:56:18.149Z,22.00
2023-06-07T05:58:46.027Z,22.20
2023-06-07T06:01:14.515Z,22.40
2023-06-07T06:03:41.524Z,22.40
2023-06-07T06:06:16.248Z,22.10
2023-06-07T06:08:44.311Z,21.70
2023-06-07T06:11:12.922Z,21.80
2023-06-07T06:13:40.879Z,21.70
2023-06-07T06:16:09.682Z,21.70
2023-06-07T06:18:38.385Z,21.60
2023-06-07T06:21:05.531Z,21.60
2023-06-07T06:23:35.384Z,21.70
2023-06-07T06:26:02.794Z,21.60
2023-06-07T06:28:29.816Z,21.50
2023-06-07T06:30:56.978Z,21.40
2023-06-07T06:33:24.002Z,21.50
2023-06-07T06:35:51.153Z,21.40
2023-06-07T06:38:18.589Z,21.10
2023-06-07T06:40:46.347Z,21.00
2023-06-07T06:43:13.801Z,21.00
2023-06-07T06:45:40.879Z,20.80
2023-06-07T06:48:08.086Z,20.70
2023-06-07T06:50:35.542Z,21.10
2023-06-07T06:53:02.825Z,20.20
2023-06-07T06:55:30.376Z,20.20
2023-06-07T06:57:58.191Z,20.00
2023-06-07T07:00:25.272Z,20.20
2023-06-07T07:02:52.885Z,19.80
2023-06-07T07:05:20.180Z,19.50
2023-06-07T07:07:47.278Z,19.50
2023-06-07T07:10:14.260Z,19.00
2023-06-07T07:12:43.722Z,19.20
2023-06-07T07:15:11.047Z,19.10
2023-06-07T07:17:56.458Z,18.30
2023-06-07T07:20:23.879Z,18.70
2023-06-07T07:22:50.988Z,18.50
2023-06-07T07:25:18.270Z,18.20
2023-06-07T07:27:45.732Z,18.10
2023-06-07T07:30:13.146Z,18.00
2023-06-07T07:32:40.221Z,18.10
2023-06-07T07:35:07.726Z,18.50
2023-06-07T07:37:34.887Z,17.90
2023-06-07T07:40:02.883Z,17.20
2023-06-07T07:42:30.303Z,17.20
2023-06-07T07:44:57.355Z,16.80
2023-06-07T07:47:24.439Z,16.70
2023-06-07T07:49:53.216Z,16.80
2023-06-07T07:52:22.445Z,16.60
2023-06-07T07:54:49.867Z,16.50
2023-06-07T07:57:17.211Z,16.20
2023-06-07T07:59:44.651Z,16.60
2023-06-07T08:02:11.740Z,16.00
2023-06-07T08:04:38.942Z,16.30
2023-06-07T08:07:06.125Z,15.70
2023-06-07T08:09:33.084Z,16.20
2023-06-07T08:12:00.115Z,15.90
2023-06-07T08:14:27.064Z,15.80
2023-06-07T08:16:54.037Z,15.40
2023-06-07T08:19:21.182Z,15.30
2023-06-07T08:21:48.672Z,14.60
2023-06-07T08:24:15.966Z,14.80
2023-06-07T08:26:46.253Z,15.00
2023-06-07T08:29:13.404Z,15.30
2023-06-07T08:31:44.924Z,15.50
2023-06-07T08:34:12.367Z,15.40
2023-06-07T08:36:43.635Z,15.40
2023-06-07T08:39:10.802Z,15.50
2023-06-07T08:41:38.052Z,15.50
2023-06-07T08:44:05.352Z,15.20
2023-06-07T08:46:33.165Z,14.70
2023-06-07T08:49:03.507Z,15.00
2023-06-07T08:51:32.854Z,15.20
2023-06-07T08:54:04.523Z,15.00
2023-06-07T08:56:34.906Z,15.20
2023-06-07T08:59:04.673Z,15.20
2023-06-07T09:01:36.089Z,15.30
2023-06-07T09:04:03.500Z,15.20
2023-06-07T09:06:30.573Z,15.50
2023-06-07T09:08:57.930Z,15.40
2023-06-07T09:11:24.934Z,14.90
2023-06-07T09:13:52.068Z,14.80
2023-06-07T09:16:19.684Z,14.80
2023-06-07T09:18:54.898Z,15.00
2023-06-07T09:21:24.017Z,14.80
2023-06-07T09:23:52.591Z,14.40
2023-06-07T09:26:21.479Z,14.30
2023-06-07T09:28:48.699Z,14.80
2023-06-07T09:31:33.690Z,14.30
2023-06-07T09:34:19.360Z,14.30
2023-06-07T09:37:00.414Z,14.20
2023-06-07T09:39:32.862Z,14.20
2023-06-07T09:42:00.187Z,14.40
2023-06-07T09:44:28.206Z,14.20
2023-06-07T09:46:56.153Z,14.60
2023-06-07T09:49:33.267Z,14.20
2023-06-07T09:52:00.632Z,14.40
2023-06-07T09:54:41.463Z,14.50
2023-06-07T09:57:10.580Z,14.20
2023-06-07T09:59:39.498Z,14.30
2023-06-07T10:02:28.838Z,14.20
2023-06-07T10:04:59.045Z,14.20
2023-06-07T10:07:34.009Z,14.00
2023-06-07T10:10:02.180Z,14.20
2023-06-07T10:12:31.977Z,14.50
2023-06-07T10:15:04.379Z,14.40
2023-06-07T10:17:56.737Z,13.90
2023-06-07T10:20:35.097Z,14.40
2023-06-07T10:23:05.781Z,14.40
2023-06-07T10:26:05.220Z,14.70
2023-06-07T10:28:40.756Z,14.30
2023-06-07T10:31:12.285Z,14.50
2023-06-07T10:33:40.051Z,14.30
2023-06-07T10:36:09.426Z,14.70
2023-06-07T10:38:37.162Z,14.70
2023-06-07T10:41:06.663Z,14.40
2023-06-07T10:43:34.804Z,14.50
2023-06-07T10:46:21.759Z,14.30
2023-06-07T10:48:49.154Z,14.30
2023-06-07T10:51:16.741Z,14.50
2023-06-07T10:53:58.050Z,14.70
2023-06-07T10:56:33.266Z,14.80
2023-06-07T10:59:15.590Z,14.60
2023-06-07T11:01:45.418Z,14.30
2023-06-07T11:04:32.142Z,14.50
2023-06-07T11:07:24.161Z,14.10
2023-06-07T11:10:14.374Z,14.30
2023-06-07T11:12:47.432Z,14.20
2023-06-07T11:15:29.283Z,14.20
2023-06-07T11:18:00.786Z,13.90
2023-06-07T11:20:45.930Z,13.60
2023-06-07T11:23:28.451Z,14.50
2023-06-07T11:26:11.971Z,13.80
2023-06-07T11:28:41.128Z,13.70
2023-06-07T11:31:13.533Z,14.20
2023-06-07T11:33:44.883Z,13.90
2023-06-07T11:36:12.578Z,13.70
2023-06-07T11:38:40.593Z,14.00
2023-06-07T11:41:07.964Z,13.50
2023-06-07T11:43:35.192Z,13.50
2023-06-07T11:46:02.393Z,13.80
2023-06-07T11:48:30.905Z,13.90
2023-06-07T11:50:59.514Z,13.90
2023-06-07T11:53:30.510Z,14.10
2023-06-07T11:55:59.254Z,14.30
2023-06-07T11:58:27.179Z,13.40
2023-06-07T12:00:54.622Z,13.60
2023-06-07T12:03:23.143Z,13.70
2023-06-07T12:05:50.500Z,13.70
2023-06-07T12:08:18.871Z,13.80
2023-06-07T12:10:54.234Z,13.50
2023-06-07T12:13:22.352Z,13.20
2023-06-07T12:15:57.236Z,13.10
2023-06-07T12:18:29.848Z,13.30
2023-06-07T12:21:07.470Z,13.00
2023-06-07T12:23:38.535Z,13.20
2023-06-07T12:26:13.384Z,13.30
2023-06-07T12:28:44.194Z,13.00
2023-06-07T12:31:20.572Z,12.90
2023-06-07T12:33:55.470Z,13.20
2023-06-07T12:36:23.621Z,13.30
2023-06-07T12:38:50.692Z,13.40
2023-06-07T12:41:17.943Z,13.20
2023-06-07T12:43:50.022Z,13.00
2023-06-07T12:46:18.937Z,13.20
2023-06-07T12:48:46.018Z,13.00
2023-06-07T12:51:13.418Z,12.70
2023-06-07T12:53:40.797Z,12.90
2023-06-07T12:56:08.008Z,13.20
2023-06-07T12:58:35.022Z,13.20
2023-06-07T13:01:03.921Z,12.90
2023-06-07T13:03:31.299Z,12.90
2023-06-07T13:05:58.432Z,13.30
2023-06-07T13:08:25.474Z,13.10
2023-06-07T13:10:53.565Z,13.50
2023-06-07T13:13:20.593Z,13.70
2023-06-07T13:15:50.984Z,13.50
2023-06-07T13:18:18.482Z,13.40
2023-06-07T13:20:45.633Z,13.30
2023-06-07T13:23:12.698Z,13.70
2023-06-07T13:25:39.821Z,13.40
2023-06-07T13:28:07.104Z,13.50
2023-06-07T13:30:34.056Z,13.60
2023-06-07T13:33:01.146Z,13.50
2023-06-07T13:35:31.859Z,13.70
2023-06-07T13:38:01.416Z,13.60
2023-06-07T13:40:28.480Z,13.70
2023-06-07T13:42:55.507Z,13.20
2023-06-07T13:45:22.578Z,13.90
2023-06-07T13:47:50.439Z,13.60
2023-06-07T13:50:17.542Z,13.80
2023-06-07T13:52:44.532Z,14.00
2023-06-07T13:55:11.796Z,14.40
2023-06-07T13:57:38.865Z,14.20
2023-06-07T14:00:06.753Z,14.70
2023-06-07T14:02:34.338Z,14.10
2023-06-07T14:05:02.823Z,14.40
2023-06-07T14:07:30.254Z,14.50
2023-06-07T14:09:57.368Z,14.70
2023-06-07T14:12:24.415Z,14.90
2023-06-07T14:14:51.940Z,14.80
2023-06-07T14:17:18.946Z,14.90
2023-06-07T14:19:46.054Z,14.70
2023-06-07T14:22:12.999Z,15.10
2023-06-07T14:24:40.018Z,15.40
2023-06-07T14:27:08.401Z,15.20
2023-06-07T14:29:35.600Z,15.60
2023-06-07T14:32:02.723Z,15.60
2023-06-07T14:34:29.705Z,15.70
2023-06-07T14:36:56.760Z,15.70
2023-06-07T14:39:23.764Z,15.90
2023-06-07T14:41:50.732Z,15.80
2023-06-07T14:44:17.889Z,16.00
2023-06-07T14:46:44.872Z,16.10
2023-06-07T14:49:11.878Z,16.20
2023-06-07T14:51:39.001Z,15.90
2023-06-07T14:54:06.388Z,16.10
2023-06-07T14:56:33.727Z,16.10
2023-06-07T14:59:00.910Z,16.30
2023-06-07T15:01:28.159Z,16.50
2023-06-07T15:03:55.263Z,16.80
2023-06-07T15:06:22.400Z,16.80
2023-06-07T15:08:54.435Z,16.90
2023-06-07T15:11:21.889Z,17.00
2023-06-07T15:13:49.545Z,17.20
2023-06-07T15:16:16.697Z,17.20
2023-06-07T15:18:43.762Z,17.50
2023-06-07T15:21:10.871Z,17.90
2023-06-07T15:23:38.129Z,17.90
2023-06-07T15:26:05.178Z,17.90
2023-06-07T15:28:32.224Z,18.10
2023-06-07T15:30:59.553Z,18.10
2023-06-07T15:33:26.551Z,18.50
2023-06-07T15:35:53.586Z,18.70
2023-06-07T15:38:20.573Z,18.60
2023-06-07T15:40:47.651Z,18.70
2023-06-07T15:43:14.807Z,18.80
2023-06-07T15:45:41.838Z,19.20
2023-06-07T15:48:08.857Z,18.90
2023-06-07T15:50:36.229Z,19.30
2023-06-07T15:53:05.615Z,19.50
2023-06-07T15:55:34.621Z,19.10
2023-06-07T15:58:01.731Z,18.90
2023-06-07T16:00:37.518Z,19.20
2023-06-07T16:03:06.586Z,19.30
2023-06-07T16:05:33.881Z,19.20
2023-06-07T16:08:04.777Z,19.20
2023-06-07T16:10:37.514Z,19.20
2023-06-07T16:13:04.680Z,19.20
2023-06-07T16:15:31.872Z,19.00
2023-06-07T16:17:58.946Z,18.90
2023-06-07T16:20:25.961Z,18.90
2023-06-07T16:22:53.644Z,18.90
2023-06-07T16:25:20.797Z,18.90
2023-06-07T16:27:48.172Z,19.00
2023-06-07T16:30:15.619Z,19.10
2023-06-07T16:32:42.621Z,19.10
2023-06-07T16:35:09.999Z,18.80
2023-06-07T16:37:36.935Z,18.90
2023-06-07T16:40:04.691Z,19.20
2023-06-07T16:42:32.468Z,19.80
2023-06-07T16:45:00.463Z,19.80
2023-06-07T16:47:28.949Z,19.90
2023-06-07T16:49:56.041Z,20.20
2023-06-07T16:52:23.500Z,20.20
2023-06-07T16:54:50.609Z,20.30
2023-06-07T16:57:17.624Z,20.10
2023-06-07T16:59:44.583Z,19.90
2023-06-07T17:02:11.746Z,19.80
2023-06-07T17:04:38.959Z,19.60
2023-06-07T17:07:06.194Z,19.50
2023-06-07T17:09:33.217Z,19.40
2023-06-07T17:12:00.433Z,19.40
2023-06-07T17:14:27.387Z,19.60
2023-06-07T17:16:54.530Z,19.50
2023-06-07T17:19:21.623Z,19.60
2023-06-07T17:21:48.634Z,19.60
2023-06-07T17:24:20.545Z,19.80
2023-06-07T17:26:47.757Z,20.00
2023-06-07T17:29:28.504Z,19.70
2023-06-07T17:31:56.712Z,19.50
2023-06-07T17:34:23.866Z,19.40
2023-06-07T17:36:50.999Z,19.80
2023-06-07T17:39:19.800Z,20.40
2023-06-07T17:41:52.283Z,19.90
2023-06-07T17:44:19.586Z,20.20
2023-06-07T17:46:49.215Z,20.80
2023-06-07T17:49:16.460Z,20.80
2023-06-07T17:51:43.478Z,20.70
2023-06-07T17:54:10.556Z,20.60
2023-06-07T17:56:37.554Z,20.60
2023-06-07T17:59:04.576Z,20.60
2023-06-07T18:01:31.629Z,20.50
2023-06-07T18:03:58.885Z,20.60
2023-06-07T18:06:26.361Z,20.80
2023-06-07T18:08:53.667Z,21.10
2023-06-07T18:11:20.755Z,21.20
2023-06-07T18:13:47.806Z,21.20
2023-06-07T18:16:15.330Z,21.30
2023-06-07T18:18:42.443Z,21.30
2023-06-07T18:21:11.166Z,21.30
2023-06-07T18:23:38.998Z,21.30
2023-06-07T18:26:07.714Z,21.40
2023-06-07T18:28:35.031Z,21.40
2023-06-07T18:31:02.276Z,21.30
2023-06-07T18:33:32.622Z,21.40
2023-06-07T18:36:10.795Z,21.50
2023-06-07T18:38:37.778Z,21.40
2023-06-07T18:41:04.871Z,21.50
2023-06-07T18:43:31.921Z,21.50
2023-06-07T18:45:58.963Z,21.60
2023-06-07T18:48:27.271Z,21.70
2023-06-07T18:50:54.952Z,21.70
2023-06-07T18:53:22.224Z,21.80
2023-06-07T18:55:49.350Z,21.80
2023-06-07T18:58:19.506Z,21.90
2023-06-07T19:00:46.840Z,22.10
2023-06-07T19:03:14.108Z,22.20
2023-06-07T19:05:41.180Z,22.40
2023-06-07T19:08:08.201Z,22.50
2023-06-07T19:10:35.235Z,22.70
2023-06-07T19:13:02.217Z,22.80
2023-06-07T19:15:29.264Z,22.80
2023-06-07T19:17:56.954Z,22.90
2023-06-07T19:20:24.017Z,22.80
2023-06-07T19:22:51.127Z,22.80
2023-06-07T19:25:18.317Z,22.80
2023-06-07T19:27:46.043Z,22.80
2023-06-07T19:30:13.915Z,22.80
2023-06-07T19:32:43.734Z,22.80
2023-06-07T19:35:11.032Z,22.80
2023-06-07T19:37:38.359Z,22.80
2023-06-07T19:40:09.246Z,22.90
2023-06-07T19:42:38.763Z,23.00
2023-06-07T19:45:06.486Z,23.10
2023-06-07T19:47:33.916Z,23.10
2023-06-07T19:50:01.495Z,23.10
2023-06-07T19:52:28.969Z,23.10
2023-06-07T19:54:56.313Z,23.10
2023-06-07T19:57:23.777Z,23.10
2023-06-07T19:59:50.791Z,23.10
2023-06-07T20:02:17.781Z,23.10
2023-06-07T20:04:44.973Z,23.20
2023-06-07T20:07:12.206Z,23.20
2023-06-07T20:09:41.152Z,23.20
2023-06-07T20:12:09.407Z,23.20
2023-06-07T20:14:37.183Z,23.20
2023-06-07T20:17:04.830Z,23.20
2023-06-07T20:19:31.844Z,23.20
2023-06-07T20:21:59.109Z,23.20
2023-06-07T20:24:26.121Z,23.20
2023-06-07T20:26:53.231Z,23.30
2023-06-07T20:29:20.692Z,23.30
2023-06-07T20:31:51.270Z,23.40
2023-06-07T20:34:19.304Z,23.50
2023-06-07T20:36:46.508Z,23.50
2023-06-07T20:39:14.054Z,23.50
2023-06-07T20:41:41.194Z,23.50
2023-06-07T20:44:09.296Z,23.60
2023-06-07T20:46:37.109Z,23.50
2023-06-07T20:49:06.345Z,23.40
2023-06-07T20:51:33.869Z,23.40
2023-06-07T20:54:01.246Z,23.30
2023-06-07T20:56:28.553Z,23.30
2023-06-07T20:58:55.697Z,23.30
2023-06-07T21:01:23.049Z,23.30
2023-06-07T21:03:52.075Z,23.30
2023-06-07T21:06:19.841Z,23.20
2023-06-07T21:08:46.888Z,23.20
2023-06-07T21:11:13.939Z,23.20
2023-06-07T21:13:41.749Z,23.20
2023-06-07T21:16:08.986Z,23.30
2023-06-07T21:18:36.088Z,23.20
2023-06-07T21:21:03.186Z,23.30
2023-06-07T21:23:30.376Z,23.30
2023-06-07T21:25:57.582Z,23.30
2023-06-07T21:28:24.732Z,23.30
2023-06-07T21:30:52.050Z,23.30
2023-06-07T21:33:22.002Z,23.40
2023-06-07T21:35:49.224Z,23.50
2023-06-07T21:38:16.515Z,23.60
2023-06-07T21:40:43.600Z,23.60
2023-06-07T21:43:10.627Z,23.50
2023-06-07T21:45:37.721Z,23.40
2023-06-07T21:48:04.999Z,23.40
2023-06-07T21:50:32.212Z,23.30
2023-06-07T21:52:59.372Z,23.50
2023-06-07T21:55:26.457Z,23.60
2023-06-07T21:57:54.372Z,23.50
2023-06-07T22:00:22.485Z,23.50
2023-06-07T22:02:50.535Z,23.60
2023-06-07T22:05:18.843Z,23.50
2023-06-07T22:07:46.008Z,23.60
2023-06-07T22:10:13.092Z,23.60
2023-06-07T22:12:42.056Z,23.60
2023-06-07T22:15:10.091Z,23.70
2023-06-07T22:17:38.110Z,23.60
2023-06-07T22:20:07.561Z,23.80
2023-06-07T22:22:35.705Z,23.70
2023-06-07T22:25:03.062Z,23.70
2023-06-07T22:27:30.361Z,23.70
2023-06-07T22:29:58.849Z,23.60
2023-06-07T22:32:30.139Z,23.70
2023-06-07T22:35:05.114Z,23.70
2023-06-07T22:37:36.316Z,23.60
2023-06-07T22:40:08.238Z,23.60
2023-06-07T22:42:36.051Z,23.60
2023-06-07T22:45:04.268Z,23.60
2023-06-07T22:47:31.618Z,23.60
2023-06-07T22:50:00.002Z,23.60
2023-06-07T22:52:29.703Z,23.60
2023-06-07T22:54:56.967Z,23.60
2023-06-07T22:57:24.226Z,23.50
2023-06-07T22:59:51.660Z,23.60
2023-06-07T23:02:18.784Z,23.70
2023-06-07T23:04:46.239Z,23.80
2023-06-07T23:07:13.563Z,23.80
2023-06-07T23:09:44.088Z,23.90
2023-06-07T23:12:14.248Z,23.90
2023-06-07T23:14:41.350Z,23.80
2023-06-07T23:17:08.477Z,23.80
2023-06-07T23:19:35.531Z,23.80
2023-06-07T23:22:04.165Z,23.70
2023-06-07T23:24:31.267Z,23.70
2023-06-07T23:26:59.851Z,23.60
2023-06-07T23:29:28.227Z,23.60
2023-06-07T23:31:58.404Z,23.60
2023-06-07T23:34:25.904Z,23.60
2023-06-07T23:36:53.429Z,23.50
2023-06-07T23:39:20.562Z,23.60
2023-06-07T23:41:48.664Z,23.60
2023-06-07T23:44:25.346Z,23.60
2023-06-07T23:46:54.288Z,23.60
2023-06-07T23:49:26.094Z,23.50
2023-06-07T23:51:54.385Z,23.50
2023-06-07T23:54:22.632Z,23.60
2023-06-07T23:56:50.890Z,23.50
2023-06-07T23:59:18.103Z,23.60
